createdAt,value
2022-10-09T00:00:11.554Z,4.75
2022-10-09T00:01:11.534Z,4.77
2022-10-09T00:02:11.527Z,4.72
2022-10-09T00:03:11.504Z,4.72
2022-10-09T00:04:11.484Z,4.71
2022-10-09T00:05:11.546Z,4.71
2022-10-09T00:06:11.463Z,4.72
2022-10-09T00:07:11.457Z,4.71
2022-10-09T00:08:11.443Z,4.72
2022-10-09T00:09:11.423Z,4.72
2022-10-09T00:10:11.435Z,4.72
2022-10-09T00:11:11.406Z,4.72
2022-10-09T00:12:11.394Z,4.71
2022-10-09T00:13:11.628Z,4.71
2022-10-09T00:14:11.353Z,4.71
2022-10-09T00:15:11.362Z,4.69
2022-10-09T00:16:11.331Z,4.69
2022-10-09T00:17:11.403Z,4.68
2022-10-09T00:18:11.299Z,4.68
2022-10-09T00:19:11.290Z,4.67
2022-10-09T00:20:11.289Z,4.67
2022-10-09T00:21:11.271Z,4.65
2022-10-09T00:22:11.252Z,4.64
2022-10-09T00:23:11.240Z,4.64
2022-10-09T00:24:11.218Z,4.62
2022-10-09T00:25:11.229Z,4.59
2022-10-09T00:26:11.202Z,4.57
2022-10-09T00:27:11.190Z,4.54
2022-10-09T00:28:11.191Z,4.53
2022-10-09T00:29:11.162Z,4.51
2022-10-09T00:30:11.157Z,4.49
2022-10-09T00:31:11.185Z,4.46
2022-10-09T00:32:11.117Z,4.44
2022-10-09T00:33:11.107Z,4.44
2022-10-09T00:34:11.108Z,4.44
2022-10-09T00:35:11.107Z,4.43
2022-10-09T00:36:11.079Z,4.43
2022-10-09T00:37:11.047Z,4.42
2022-10-09T00:38:11.037Z,4.42
2022-10-09T00:39:11.015Z,4.39
2022-10-09T00:40:11.015Z,4.39
2022-10-09T00:41:11.002Z,4.39
2022-10-09T00:42:10.980Z,4.36
2022-10-09T00:43:10.965Z,4.36
2022-10-09T00:44:10.946Z,4.38
2022-10-09T00:45:10.946Z,4.38
2022-10-09T00:46:10.982Z,4.38
2022-10-09T00:47:10.929Z,4.36
2022-10-09T00:48:10.917Z,4.34
2022-10-09T00:49:10.916Z,4.35
2022-10-09T00:50:10.875Z,4.34
2022-10-09T00:51:10.865Z,4.31
2022-10-09T00:52:10.844Z,4.31
2022-10-09T00:53:10.835Z,4.28
2022-10-09T00:54:10.814Z,4.28
2022-10-09T00:55:10.820Z,4.26
2022-10-09T00:56:10.814Z,4.26
2022-10-09T00:57:10.785Z,4.25
2022-10-09T00:58:10.763Z,4.24
2022-10-09T00:59:10.753Z,4.24
2022-10-09T01:00:10.750Z,4.24
2022-10-09T01:01:10.765Z,4.21
2022-10-09T01:02:10.770Z,4.20
2022-10-09T01:03:10.713Z,4.17
2022-10-09T01:04:10.684Z,4.14
2022-10-09T01:05:10.683Z,4.13
2022-10-09T01:06:10.652Z,4.13
2022-10-09T01:07:10.642Z,4.11
2022-10-09T01:08:10.633Z,4.08
2022-10-09T01:09:10.622Z,4.08
2022-10-09T01:10:10.629Z,4.08
2022-10-09T01:11:10.589Z,4.08
2022-10-09T01:12:10.575Z,4.07
2022-10-09T01:13:10.560Z,4.10
2022-10-09T01:14:10.540Z,4.10
2022-10-09T01:15:10.555Z,4.10
2022-10-09T01:16:10.535Z,4.11
2022-10-09T01:17:10.510Z,4.10
2022-10-09T01:18:10.490Z,4.10
2022-10-09T01:19:10.479Z,4.13
2022-10-09T01:20:10.479Z,4.11
2022-10-09T01:21:10.451Z,4.11
2022-10-09T01:22:10.439Z,4.11
2022-10-09T01:23:10.427Z,4.11
2022-10-09T01:24:10.418Z,4.08
2022-10-09T01:25:10.409Z,4.07
2022-10-09T01:26:10.393Z,4.06
2022-10-09T01:27:10.369Z,4.04
2022-10-09T01:28:10.413Z,4.04
2022-10-09T01:29:10.346Z,4.02
2022-10-09T01:30:10.337Z,4.00
2022-10-09T01:31:10.336Z,3.98
2022-10-09T01:32:10.314Z,3.98
2022-10-09T01:33:10.305Z,3.98
2022-10-09T01:34:10.287Z,3.98
2022-10-09T01:35:10.275Z,3.96
2022-10-09T01:36:10.258Z,3.95
2022-10-09T01:37:10.245Z,3.95
2022-10-09T01:38:10.238Z,3.93
2022-10-09T01:39:10.206Z,3.93
2022-10-09T01:40:10.215Z,3.92
2022-10-09T01:41:10.185Z,3.90
2022-10-09T01:42:10.183Z,3.88
2022-10-09T01:43:10.154Z,3.86
2022-10-09T01:44:10.145Z,3.86
2022-10-09T01:45:10.135Z,3.86
2022-10-09T01:46:10.163Z,3.81
2022-10-09T01:47:10.105Z,3.80
2022-10-09T01:48:10.102Z,3.78
2022-10-09T01:49:10.083Z,3.77
2022-10-09T01:50:10.078Z,3.77
2022-10-09T01:51:10.044Z,3.74
2022-10-09T01:52:10.037Z,3.72
2022-10-09T01:53:10.014Z,3.70
2022-10-09T01:54:10.011Z,3.70
2022-10-09T01:55:10.002Z,3.70
2022-10-09T01:56:09.990Z,3.68
2022-10-09T01:57:09.981Z,3.68
2022-10-09T01:58:09.953Z,3.67
2022-10-09T01:59:14.832Z,3.64
2022-10-09T02:00:10.932Z,3.63
2022-10-09T02:01:09.980Z,3.63
2022-10-09T02:02:10.036Z,3.63
2022-10-09T02:03:09.891Z,3.64
2022-10-09T02:04:09.880Z,3.64
2022-10-09T02:05:09.862Z,3.64
2022-10-09T02:06:09.854Z,3.63
2022-10-09T02:07:09.837Z,3.62
2022-10-09T02:08:09.820Z,3.60
2022-10-09T02:09:09.814Z,3.60
2022-10-09T02:10:09.808Z,3.57
2022-10-09T02:11:09.780Z,3.56
2022-10-09T02:12:09.774Z,3.54
2022-10-09T02:13:09.751Z,3.56
2022-10-09T02:14:09.749Z,3.54
2022-10-09T02:15:09.736Z,3.53
2022-10-09T02:16:09.782Z,3.53
2022-10-09T02:17:09.714Z,3.56
2022-10-09T02:18:09.699Z,3.56
2022-10-09T02:19:09.681Z,3.54
2022-10-09T02:20:09.677Z,3.53
2022-10-09T02:21:09.659Z,3.52
2022-10-09T02:22:09.638Z,3.52
2022-10-09T02:23:09.630Z,3.52
2022-10-09T02:24:09.617Z,3.52
2022-10-09T02:25:09.609Z,3.50
2022-10-09T02:26:09.600Z,3.52
2022-10-09T02:27:09.568Z,3.46
2022-10-09T02:28:09.631Z,3.46
2022-10-09T02:29:09.548Z,3.49
2022-10-09T02:30:09.565Z,3.45
2022-10-09T02:31:09.566Z,3.45
2022-10-09T02:32:09.520Z,3.42
2022-10-09T02:33:09.515Z,3.42
2022-10-09T02:34:09.486Z,3.39
2022-10-09T02:35:09.519Z,3.41
2022-10-09T02:36:09.483Z,3.39
2022-10-09T02:37:09.446Z,3.39
2022-10-09T02:38:09.434Z,3.41
2022-10-09T02:39:09.418Z,3.39
2022-10-09T02:40:10.912Z,3.41
2022-10-09T02:41:09.394Z,3.41
2022-10-09T02:42:09.385Z,3.37
2022-10-09T02:43:09.372Z,3.41
2022-10-09T02:44:09.362Z,3.41
2022-10-09T02:45:09.391Z,3.37
2022-10-09T02:46:09.370Z,3.37
2022-10-09T02:47:09.314Z,3.37
2022-10-09T02:48:09.302Z,3.34
2022-10-09T02:49:09.293Z,3.34
2022-10-09T02:50:09.293Z,3.31
2022-10-09T02:51:09.272Z,3.31
2022-10-09T02:52:09.257Z,3.30
2022-10-09T02:53:09.253Z,3.28
2022-10-09T02:54:09.232Z,3.26
2022-10-09T02:55:09.226Z,3.25
2022-10-09T02:56:09.206Z,3.23
2022-10-09T02:57:09.190Z,3.22
2022-10-09T02:58:09.190Z,3.20
2022-10-09T02:59:09.160Z,3.17
2022-10-09T03:00:09.174Z,3.17
2022-10-09T03:01:09.143Z,3.15
2022-10-09T03:02:09.250Z,3.15
2022-10-09T03:03:09.217Z,3.15
2022-10-09T03:04:09.105Z,3.13
2022-10-09T03:05:09.111Z,3.13
2022-10-09T03:06:09.121Z,3.13
2022-10-09T03:07:09.061Z,3.10
2022-10-09T03:08:09.104Z,3.12
2022-10-09T03:09:09.030Z,3.12
2022-10-09T03:10:09.040Z,3.08
2022-10-09T03:11:09.009Z,3.08
2022-10-09T03:12:09.000Z,3.07
2022-10-09T03:13:08.998Z,3.05
2022-10-09T03:14:08.994Z,3.07
2022-10-09T03:15:09.003Z,3.02
2022-10-09T03:16:09.008Z,3.04
2022-10-09T03:17:08.930Z,3.02
2022-10-09T03:18:08.925Z,3.02
2022-10-09T03:19:08.897Z,2.99
2022-10-09T03:20:08.906Z,2.98
2022-10-09T03:21:08.880Z,2.98
2022-10-09T03:22:08.866Z,2.98
2022-10-09T03:23:08.849Z,2.97
2022-10-09T03:24:08.844Z,2.95
2022-10-09T03:25:08.837Z,2.94
2022-10-09T03:26:08.816Z,2.94
2022-10-09T03:27:08.803Z,2.94
2022-10-09T03:28:08.833Z,2.90
2022-10-09T03:29:08.774Z,2.92
2022-10-09T03:30:08.774Z,2.90
2022-10-09T03:31:08.804Z,2.90
2022-10-09T03:32:08.797Z,2.90
2022-10-09T03:33:08.725Z,2.90
2022-10-09T03:34:08.714Z,2.90
2022-10-09T03:35:08.704Z,2.90
2022-10-09T03:36:08.683Z,2.92
2022-10-09T03:37:08.668Z,2.92
2022-10-09T03:38:08.655Z,2.92
2022-10-09T03:39:08.644Z,2.92
2022-10-09T03:40:08.645Z,2.92
2022-10-09T03:41:08.622Z,2.90
2022-10-09T03:42:08.610Z,2.94
2022-10-09T03:43:08.591Z,2.92
2022-10-09T03:44:08.588Z,2.92
2022-10-09T03:45:08.588Z,2.92
2022-10-09T03:46:08.599Z,2.92
2022-10-09T03:47:08.540Z,2.92
2022-10-09T03:48:08.532Z,2.89
2022-10-09T03:49:08.521Z,2.90
2022-10-09T03:50:08.520Z,2.90
2022-10-09T03:51:08.489Z,2.87
2022-10-09T03:52:08.501Z,2.87
2022-10-09T03:53:08.460Z,2.86
2022-10-09T03:54:08.483Z,2.87
2022-10-09T03:55:08.443Z,2.87
2022-10-09T03:56:08.427Z,2.86
2022-10-09T03:57:08.412Z,2.86
2022-10-09T03:58:08.425Z,2.86
2022-10-09T03:59:08.408Z,2.84
2022-10-09T04:00:08.371Z,2.81
2022-10-09T04:01:08.471Z,2.80
2022-10-09T04:02:08.409Z,2.77
2022-10-09T04:03:08.339Z,2.77
2022-10-09T04:04:08.328Z,2.76
2022-10-09T04:05:08.310Z,2.76
2022-10-09T04:06:08.299Z,2.74
2022-10-09T04:07:08.289Z,2.73
2022-10-09T04:08:08.277Z,2.73
2022-10-09T04:09:08.320Z,2.74
2022-10-09T04:10:08.248Z,2.73
2022-10-09T04:11:08.227Z,2.73
2022-10-09T04:12:08.228Z,2.71
2022-10-09T04:13:08.210Z,2.71
2022-10-09T04:14:08.213Z,2.69
2022-10-09T04:15:08.175Z,2.69
2022-10-09T04:16:08.236Z,2.69
2022-10-09T04:17:08.160Z,2.68
2022-10-09T04:18:08.148Z,2.69
2022-10-09T04:19:08.136Z,2.66
2022-10-09T04:20:08.127Z,2.66
2022-10-09T04:21:08.104Z,2.66
2022-10-09T04:22:08.096Z,2.65
2022-10-09T04:23:08.086Z,2.65
2022-10-09T04:24:08.075Z,2.62
2022-10-09T04:25:08.054Z,2.61
2022-10-09T04:26:08.044Z,2.59
2022-10-09T04:27:08.023Z,2.58
2022-10-09T04:28:08.062Z,2.56
2022-10-09T04:29:08.017Z,2.58
2022-10-09T04:30:08.002Z,2.55
2022-10-09T04:31:08.031Z,2.56
2022-10-09T04:32:07.968Z,2.56
2022-10-09T04:33:12.593Z,2.55
2022-10-09T04:34:08.963Z,2.55
2022-10-09T04:35:07.926Z,2.55
2022-10-09T04:36:07.911Z,2.55
2022-10-09T04:37:07.894Z,2.53
2022-10-09T04:38:07.895Z,2.51
2022-10-09T04:39:07.882Z,2.51
2022-10-09T04:40:07.861Z,2.50
2022-10-09T04:41:07.841Z,2.50
2022-10-09T04:42:07.839Z,2.50
2022-10-09T04:43:07.820Z,2.47
2022-10-09T04:44:07.822Z,2.47
2022-10-09T04:45:07.794Z,2.48
2022-10-09T04:46:07.837Z,2.47
2022-10-09T04:47:11.118Z,2.47
2022-10-09T04:48:07.768Z,2.45
2022-10-09T04:49:07.750Z,2.47
2022-10-09T04:50:07.730Z,2.47
2022-10-09T04:51:07.720Z,2.47
2022-10-09T04:52:07.710Z,2.47
2022-10-09T04:53:07.690Z,2.45
2022-10-09T04:54:07.697Z,2.45
2022-10-09T04:55:07.667Z,2.45
2022-10-09T04:56:07.662Z,2.45
2022-10-09T04:57:07.648Z,2.43
2022-10-09T04:58:07.648Z,2.44
2022-10-09T04:59:07.617Z,2.44
2022-10-09T05:00:07.611Z,2.44
2022-10-09T05:01:07.675Z,2.44
2022-10-09T05:02:07.613Z,2.43
2022-10-09T05:03:07.577Z,2.43
2022-10-09T05:04:07.574Z,2.43
2022-10-09T05:05:07.540Z,2.43
2022-10-09T05:06:07.544Z,2.40
2022-10-09T05:07:07.519Z,2.41
2022-10-09T05:08:07.521Z,2.40
2022-10-09T05:09:07.490Z,2.41
2022-10-09T05:10:07.489Z,2.40
2022-10-09T05:11:07.470Z,2.41
2022-10-09T05:12:07.465Z,2.41
2022-10-09T05:13:07.470Z,2.43
2022-10-09T05:14:07.446Z,2.43
2022-10-09T05:15:07.413Z,2.43
2022-10-09T05:16:07.444Z,2.41
2022-10-09T05:17:15.211Z,2.41
2022-10-09T05:18:08.382Z,2.43
2022-10-09T05:19:07.357Z,2.43
2022-10-09T05:20:07.355Z,2.43
2022-10-09T05:21:07.333Z,2.41
2022-10-09T05:22:07.325Z,2.41
2022-10-09T05:23:07.311Z,2.44
2022-10-09T05:24:10.394Z,2.41
2022-10-09T05:25:07.271Z,2.43
2022-10-09T05:26:07.282Z,2.44
2022-10-09T05:27:07.272Z,2.45
2022-10-09T05:28:07.289Z,2.47
2022-10-09T05:29:07.221Z,2.47
2022-10-09T05:30:07.212Z,2.47
2022-10-09T05:31:07.210Z,2.48
2022-10-09T05:32:07.213Z,2.47
2022-10-09T05:33:07.194Z,2.47
2022-10-09T05:34:07.186Z,2.47
2022-10-09T05:35:07.154Z,2.47
2022-10-09T05:36:07.141Z,2.45
2022-10-09T05:37:07.235Z,2.47
2022-10-09T05:38:07.120Z,2.47
2022-10-09T05:39:07.101Z,2.48
2022-10-09T05:40:07.081Z,2.50
2022-10-09T05:41:07.079Z,2.50
2022-10-09T05:42:07.067Z,2.51
2022-10-09T05:43:07.060Z,2.55
2022-10-09T05:44:07.031Z,2.55
2022-10-09T05:45:07.018Z,2.55
2022-10-09T05:46:07.096Z,2.55
2022-10-09T05:47:07.000Z,2.56
2022-10-09T05:48:07.001Z,2.58
2022-10-09T05:49:06.967Z,2.59
2022-10-09T05:50:06.956Z,2.61
2022-10-09T05:51:06.945Z,2.62
2022-10-09T05:52:06.938Z,2.63
2022-10-09T05:53:06.939Z,2.66
2022-10-09T05:54:06.907Z,2.69
2022-10-09T05:55:06.908Z,2.73
2022-10-09T05:56:06.887Z,2.74
2022-10-09T05:57:06.928Z,2.84
2022-10-09T05:58:06.867Z,2.94
2022-10-09T05:59:06.862Z,3.01
2022-10-09T06:00:06.842Z,3.08
2022-10-09T06:01:06.845Z,3.15
2022-10-09T06:02:06.853Z,3.17
2022-10-09T06:03:06.810Z,3.22
2022-10-09T06:04:06.776Z,3.26
2022-10-09T06:05:06.764Z,3.30
2022-10-09T06:06:06.756Z,3.34
2022-10-09T06:07:06.749Z,3.44
2022-10-09T06:08:06.754Z,3.54
2022-10-09T06:09:06.720Z,3.63
2022-10-09T06:10:06.694Z,3.72
2022-10-09T06:11:06.692Z,3.75
2022-10-09T06:12:06.681Z,3.81
2022-10-09T06:13:06.679Z,3.93
2022-10-09T06:14:06.643Z,4.11
2022-10-09T06:15:06.652Z,4.35
2022-10-09T06:16:06.613Z,4.53
2022-10-09T06:17:06.690Z,4.67
2022-10-09T06:18:06.604Z,4.75
2022-10-09T06:19:06.583Z,4.77
2022-10-09T06:20:06.562Z,4.77
2022-10-09T06:21:06.551Z,4.77
2022-10-09T06:22:06.538Z,4.84
2022-10-09T06:23:06.539Z,4.91
2022-10-09T06:24:06.514Z,4.94
2022-10-09T06:25:06.501Z,5.02
2022-10-09T06:26:06.481Z,5.06
2022-10-09T06:27:06.479Z,5.05
2022-10-09T06:28:06.488Z,5.05
2022-10-09T06:29:06.445Z,5.06
2022-10-09T06:30:06.428Z,5.06
2022-10-09T06:31:06.493Z,5.06
2022-10-09T06:32:06.408Z,5.11
2022-10-09T06:33:06.403Z,5.14
2022-10-09T06:34:06.381Z,5.14
2022-10-09T06:35:06.385Z,5.19
2022-10-09T06:36:10.182Z,5.20
2022-10-09T06:37:06.337Z,5.23
2022-10-09T06:38:06.340Z,5.26
2022-10-09T06:39:06.317Z,5.29
2022-10-09T06:40:06.324Z,5.35
2022-10-09T06:41:06.301Z,5.35
2022-10-09T06:42:06.279Z,5.41
2022-10-09T06:43:06.447Z,5.45
2022-10-09T06:44:06.274Z,5.51
2022-10-09T06:45:06.271Z,5.56
2022-10-09T06:46:06.254Z,5.62
2022-10-09T06:47:06.207Z,5.63
2022-10-09T06:48:06.204Z,5.66
2022-10-09T06:49:06.184Z,5.69
2022-10-09T06:50:06.167Z,5.73
2022-10-09T06:51:06.157Z,5.74
2022-10-09T06:52:06.150Z,5.77
2022-10-09T06:53:06.149Z,5.83
2022-10-09T06:54:06.119Z,5.84
2022-10-09T06:55:06.104Z,5.87
2022-10-09T06:56:06.087Z,5.90
2022-10-09T06:57:06.074Z,5.93
2022-10-09T06:58:06.064Z,5.93
2022-10-09T06:59:06.065Z,5.98
2022-10-09T07:00:06.038Z,6.01
2022-10-09T07:01:06.070Z,6.05
2022-10-09T07:02:06.083Z,6.10
2022-10-09T07:03:06.111Z,6.13
2022-10-09T07:04:05.983Z,6.17
2022-10-09T07:05:05.984Z,6.20
2022-10-09T07:06:05.954Z,6.25
2022-10-09T07:07:05.942Z,6.36
2022-10-09T07:08:12.950Z,6.42
2022-10-09T07:09:05.920Z,6.54
2022-10-09T07:10:05.909Z,6.73
2022-10-09T07:11:05.900Z,7.23
2022-10-09T07:12:05.880Z,7.94
2022-10-09T07:13:05.889Z,8.65
2022-10-09T07:14:05.865Z,9.27
2022-10-09T07:15:05.846Z,9.91
2022-10-09T07:16:05.851Z,10.52
2022-10-09T07:17:05.820Z,11.11
2022-10-09T07:18:05.815Z,11.67
2022-10-09T07:19:05.792Z,12.13
2022-10-09T07:20:05.766Z,12.56
2022-10-09T07:21:05.767Z,12.95
2022-10-09T07:22:05.747Z,13.39
2022-10-09T07:23:05.808Z,13.68
2022-10-09T07:24:05.732Z,13.86
2022-10-09T07:25:05.708Z,14.01
2022-10-09T07:26:05.705Z,14.12
2022-10-09T07:27:05.692Z,14.17
2022-10-09T07:28:05.720Z,14.27
2022-10-09T07:29:05.657Z,14.39
2022-10-09T07:30:05.657Z,14.46
2022-10-09T07:31:05.734Z,14.61
2022-10-09T07:32:10.202Z,14.78
2022-10-09T07:33:06.615Z,14.98
2022-10-09T07:34:05.603Z,15.20
2022-10-09T07:35:05.584Z,15.44
2022-10-09T07:36:05.558Z,15.64
2022-10-09T07:37:05.561Z,15.91
2022-10-09T07:38:05.548Z,16.26
2022-10-09T07:39:05.527Z,16.59
2022-10-09T07:40:05.521Z,16.91
2022-10-09T07:41:05.496Z,17.27
2022-10-09T07:42:05.500Z,17.70
2022-10-09T07:43:05.484Z,18.16
2022-10-09T07:44:05.460Z,18.53
2022-10-09T07:45:05.466Z,18.91
2022-10-09T07:46:05.471Z,19.31
2022-10-09T07:47:05.438Z,19.64
2022-10-09T07:48:05.419Z,19.98
2022-10-09T07:49:05.420Z,20.31
2022-10-09T07:50:05.375Z,20.66
2022-10-09T07:51:05.372Z,20.85
2022-10-09T07:52:05.337Z,20.90
2022-10-09T07:53:05.348Z,20.91
2022-10-09T07:54:05.316Z,20.98
2022-10-09T07:55:05.306Z,21.11
2022-10-09T07:56:05.298Z,21.16
2022-10-09T07:57:05.295Z,21.18
2022-10-09T07:58:05.276Z,21.18
2022-10-09T07:59:05.254Z,21.16
2022-10-09T08:00:05.239Z,21.19
2022-10-09T08:01:05.240Z,21.15
2022-10-09T08:02:05.348Z,21.28
2022-10-09T08:03:05.251Z,21.37
2022-10-09T08:04:05.189Z,21.52
2022-10-09T08:05:05.180Z,21.63
2022-10-09T08:06:05.157Z,21.67
2022-10-09T08:07:05.157Z,21.64
2022-10-09T08:08:05.147Z,21.82
2022-10-09T08:09:05.136Z,21.82
2022-10-09T08:10:05.110Z,21.91
2022-10-09T08:11:05.087Z,21.93
2022-10-09T08:12:05.089Z,22.04
2022-10-09T08:13:05.087Z,22.24
2022-10-09T08:14:05.060Z,22.48
2022-10-09T08:15:05.040Z,22.67
2022-10-09T08:16:05.080Z,22.86
2022-10-09T08:17:05.020Z,23.09
2022-10-09T08:18:05.020Z,23.23
2022-10-09T08:19:04.991Z,23.45
2022-10-09T08:20:04.976Z,23.72
2022-10-09T08:21:04.962Z,23.87
2022-10-09T08:22:04.939Z,24.00
2022-10-09T08:23:04.978Z,24.15
2022-10-09T08:24:04.921Z,24.27
2022-10-09T08:25:04.924Z,24.30
2022-10-09T08:26:04.887Z,24.23
2022-10-09T08:27:04.889Z,24.37
2022-10-09T08:28:04.989Z,24.64
2022-10-09T08:29:04.860Z,24.93
2022-10-09T08:30:04.837Z,25.07
2022-10-09T08:31:04.971Z,25.01
2022-10-09T08:32:04.812Z,24.92
2022-10-09T08:33:04.822Z,24.75
2022-10-09T08:34:04.779Z,24.79
2022-10-09T08:35:04.772Z,24.86
2022-10-09T08:36:04.751Z,24.79
2022-10-09T08:37:04.754Z,24.74
2022-10-09T08:38:04.749Z,24.79
2022-10-09T08:39:04.722Z,24.83
2022-10-09T08:40:04.700Z,24.97
2022-10-09T08:41:04.705Z,25.02
2022-10-09T08:42:04.682Z,25.05
2022-10-09T08:43:04.684Z,25.05
2022-10-09T08:44:04.654Z,25.09
2022-10-09T08:45:04.643Z,25.17
2022-10-09T08:46:04.656Z,25.19
2022-10-09T08:47:04.623Z,25.20
2022-10-09T08:48:04.623Z,25.22
2022-10-09T08:49:04.605Z,25.23
2022-10-09T08:50:04.583Z,25.20
2022-10-09T08:51:04.575Z,25.16
2022-10-09T08:52:04.543Z,25.14
2022-10-09T08:53:04.560Z,25.23
2022-10-09T08:54:04.556Z,25.35
2022-10-09T08:55:04.514Z,25.45
2022-10-09T08:56:04.493Z,25.53
2022-10-09T08:57:04.472Z,25.53
2022-10-09T08:58:04.484Z,25.51
2022-10-09T08:59:04.461Z,25.42
2022-10-09T09:00:04.489Z,25.36
2022-10-09T09:01:04.434Z,25.41
2022-10-09T09:02:04.456Z,25.29
2022-10-09T09:03:04.479Z,25.12
2022-10-09T09:04:04.390Z,25.09
2022-10-09T09:05:04.383Z,25.11
2022-10-09T09:06:04.355Z,25.19
2022-10-09T09:07:04.355Z,25.27
2022-10-09T09:08:04.343Z,25.35
2022-10-09T09:09:04.359Z,25.36
2022-10-09T09:10:04.325Z,25.35
2022-10-09T09:11:04.309Z,25.45
2022-10-09T09:12:04.313Z,25.51
2022-10-09T09:13:04.285Z,25.59
2022-10-09T09:14:04.265Z,25.48
2022-10-09T09:15:04.247Z,25.19
2022-10-09T09:16:04.314Z,24.83
2022-10-09T09:17:04.235Z,24.74
2022-10-09T09:18:04.210Z,24.84
2022-10-09T09:19:04.192Z,24.87
2022-10-09T09:20:04.190Z,24.93
2022-10-09T09:21:04.175Z,25.04
2022-10-09T09:22:04.167Z,25.17
2022-10-09T09:23:04.146Z,25.26
2022-10-09T09:24:04.125Z,25.30
2022-10-09T09:25:04.125Z,25.23
2022-10-09T09:26:04.105Z,25.11
2022-10-09T09:27:04.106Z,24.92
2022-10-09T09:28:05.962Z,24.66
2022-10-09T09:29:04.068Z,24.48
2022-10-09T09:30:04.053Z,24.36
2022-10-09T09:31:04.095Z,24.29
2022-10-09T09:32:04.037Z,24.16
2022-10-09T09:33:04.019Z,24.21
2022-10-09T09:34:03.998Z,24.29
2022-10-09T09:35:03.999Z,24.27
2022-10-09T09:36:03.969Z,24.09
2022-10-09T09:37:03.967Z,24.09
2022-10-09T09:38:03.937Z,24.18
2022-10-09T09:41:04.902Z,24.05
2022-10-09T09:42:03.913Z,23.93
2022-10-09T09:43:10.880Z,23.84
2022-10-09T09:44:03.863Z,23.81
2022-10-09T09:45:03.858Z,23.84
2022-10-09T09:46:03.838Z,23.84
2022-10-09T09:47:03.863Z,23.68
2022-10-09T09:48:03.851Z,23.47
2022-10-09T09:49:08.544Z,23.41
2022-10-09T09:50:04.793Z,23.26
2022-10-09T09:51:27.296Z,23.25
2022-10-09T09:52:04.762Z,23.12
2022-10-09T09:53:03.758Z,22.93
2022-10-09T09:54:03.742Z,22.76
2022-10-09T09:55:03.713Z,22.69
2022-10-09T09:56:03.743Z,22.74
2022-10-09T09:57:21.946Z,22.72
2022-10-09T09:58:04.687Z,22.66
2022-10-09T09:59:03.662Z,22.54
2022-10-09T10:00:03.679Z,22.33
2022-10-09T10:01:03.722Z,22.24
2022-10-09T10:02:03.692Z,22.02
2022-10-09T10:03:03.606Z,21.99
2022-10-09T10:04:03.621Z,21.94
2022-10-09T10:05:03.584Z,21.89
2022-10-09T10:06:03.595Z,21.82
2022-10-09T10:07:03.556Z,21.67
2022-10-09T10:08:03.555Z,21.43
2022-10-09T10:09:03.532Z,21.22
2022-10-09T10:10:03.525Z,21.11
2022-10-09T10:11:03.513Z,21.01
2022-10-09T10:12:03.497Z,21.05
2022-10-09T10:13:03.475Z,21.00
2022-10-09T10:14:03.477Z,20.91
2022-10-09T10:15:03.454Z,20.94
2022-10-09T10:16:03.538Z,20.97
2022-10-09T10:17:03.824Z,20.96
2022-10-09T10:18:03.421Z,20.98
2022-10-09T10:19:04.082Z,20.96
2022-10-09T10:20:03.405Z,20.83
2022-10-09T10:21:03.815Z,20.66
2022-10-09T10:22:03.367Z,20.60
2022-10-09T10:23:03.347Z,20.56
2022-10-09T10:24:04.429Z,20.51
2022-10-09T10:25:03.326Z,20.53
2022-10-09T10:26:03.349Z,20.56
2022-10-09T10:27:03.298Z,20.64
2022-10-09T10:28:03.334Z,20.76
2022-10-09T10:29:03.263Z,20.85
2022-10-09T10:30:03.266Z,20.88
2022-10-09T10:31:03.342Z,20.87
2022-10-09T10:32:03.226Z,20.90
2022-10-09T10:33:03.207Z,21.00
2022-10-09T10:34:03.205Z,21.09
2022-10-09T10:35:03.186Z,21.11
2022-10-09T10:36:03.193Z,21.00
2022-10-09T10:37:03.550Z,21.05
2022-10-09T10:38:03.148Z,21.00
2022-10-09T10:39:03.127Z,21.05
2022-10-09T10:40:03.149Z,21.06
2022-10-09T10:41:03.117Z,20.87
2022-10-09T10:42:03.088Z,20.71
2022-10-09T10:43:03.090Z,20.51
2022-10-09T10:44:03.070Z,20.31
2022-10-09T10:45:03.049Z,20.33
2022-10-09T10:46:03.048Z,20.42
2022-10-09T10:47:03.028Z,20.46
2022-10-09T10:48:03.027Z,20.42
2022-10-09T10:49:03.001Z,20.40
2022-10-09T10:50:03.002Z,20.38
2022-10-09T10:51:02.970Z,20.25
2022-10-09T10:52:02.979Z,20.19
2022-10-09T10:53:02.949Z,20.33
2022-10-09T10:54:02.929Z,20.37
2022-10-09T10:55:02.920Z,20.40
2022-10-09T10:56:05.412Z,20.38
2022-10-09T10:57:02.888Z,20.40
2022-10-09T10:58:02.880Z,20.42
2022-10-09T10:59:02.860Z,20.51
2022-10-09T11:00:02.860Z,20.51
2022-10-09T11:01:02.871Z,20.53
2022-10-09T11:02:02.828Z,20.61
2022-10-09T11:03:02.880Z,20.63
2022-10-09T11:04:02.808Z,20.66
2022-10-09T11:05:02.805Z,20.72
2022-10-09T11:06:02.782Z,20.63
2022-10-09T11:07:02.772Z,20.51
2022-10-09T11:08:02.754Z,20.25
2022-10-09T11:09:02.742Z,20.10
2022-10-09T11:10:02.736Z,20.15
2022-10-09T11:11:02.715Z,20.23
2022-10-09T11:12:02.728Z,20.34
2022-10-09T11:13:02.972Z,20.44
2022-10-09T11:14:02.673Z,20.61
2022-10-09T11:15:02.663Z,20.73
2022-10-09T11:16:02.722Z,20.75
2022-10-09T11:17:02.635Z,20.66
2022-10-09T11:18:02.623Z,20.63
2022-10-09T11:19:02.602Z,20.66
2022-10-09T11:20:02.595Z,20.61
2022-10-09T11:21:02.565Z,20.51
2022-10-09T11:22:02.572Z,20.50
2022-10-09T11:23:02.555Z,20.51
2022-10-09T11:24:02.533Z,20.56
2022-10-09T11:25:02.535Z,20.51
2022-10-09T11:26:02.503Z,20.48
2022-10-09T11:27:03.787Z,20.46
2022-10-09T11:28:02.642Z,20.50
2022-10-09T11:29:02.470Z,20.50
2022-10-09T11:30:02.472Z,20.53
2022-10-09T11:31:02.435Z,20.56
2022-10-09T11:32:02.536Z,20.44
2022-10-09T11:33:02.426Z,20.30
2022-10-09T11:34:02.410Z,20.26
2022-10-09T11:35:02.395Z,20.26
2022-10-09T11:36:02.374Z,20.23
2022-10-09T11:37:02.364Z,20.25
2022-10-09T11:38:02.373Z,20.30
2022-10-09T11:39:02.325Z,20.34
2022-10-09T11:40:02.335Z,20.35
2022-10-09T11:41:05.099Z,20.46
2022-10-09T11:42:02.294Z,20.50
2022-10-09T11:43:02.282Z,20.44
2022-10-09T11:44:02.267Z,20.40
2022-10-09T11:45:02.254Z,20.38
2022-10-09T11:46:02.292Z,20.42
2022-10-09T11:47:02.888Z,20.46
2022-10-09T11:48:02.215Z,20.40
2022-10-09T11:49:02.197Z,20.34
2022-10-09T11:50:02.216Z,20.31
2022-10-09T11:51:02.165Z,20.31
2022-10-09T11:52:02.169Z,20.38
2022-10-09T11:53:02.137Z,20.38
2022-10-09T11:54:02.135Z,20.37
2022-10-09T11:55:02.127Z,20.35
2022-10-09T11:56:02.105Z,20.30
2022-10-09T11:57:05.152Z,20.30
2022-10-09T11:58:02.084Z,20.33
2022-10-09T11:59:02.054Z,20.38
2022-10-09T12:00:02.063Z,20.40
2022-10-09T12:01:02.156Z,20.38
2022-10-09T12:02:02.056Z,20.34
2022-10-09T12:03:02.030Z,20.31
2022-10-09T12:04:02.009Z,20.31
2022-10-09T12:05:01.995Z,20.31
2022-10-09T12:06:01.987Z,20.27
2022-10-09T12:07:01.977Z,20.25
2022-10-09T12:08:01.947Z,20.20
2022-10-09T12:09:01.935Z,20.10
2022-10-09T12:10:01.926Z,19.90
2022-10-09T12:11:01.904Z,19.78
2022-10-09T12:12:01.902Z,19.76
2022-10-09T12:13:01.884Z,19.76
2022-10-09T12:14:01.865Z,19.75
2022-10-09T12:15:01.865Z,19.76
2022-10-09T12:16:01.847Z,19.79
2022-10-09T12:17:01.934Z,19.71
2022-10-09T12:18:01.825Z,19.70
2022-10-09T12:19:01.809Z,19.70
2022-10-09T12:20:01.810Z,19.71
2022-10-09T12:21:01.765Z,19.72
2022-10-09T12:22:01.779Z,19.72
2022-10-09T12:23:21.869Z,19.79
2022-10-09T12:24:02.737Z,19.86
2022-10-09T12:25:01.730Z,19.90
2022-10-09T12:26:01.733Z,19.97
2022-10-09T12:27:01.686Z,19.98
2022-10-09T12:28:01.677Z,19.94
2022-10-09T12:29:01.679Z,19.97
2022-10-09T12:30:01.659Z,19.98
2022-10-09T12:31:01.698Z,20.04
2022-10-09T12:32:01.628Z,20.04
2022-10-09T12:33:01.618Z,20.00
2022-10-09T12:34:01.617Z,19.92
2022-10-09T12:35:01.591Z,19.92
2022-10-09T12:36:01.591Z,19.86
2022-10-09T12:37:01.561Z,19.80
2022-10-09T12:38:01.563Z,19.75
2022-10-09T12:39:01.544Z,19.71
2022-10-09T12:40:01.531Z,19.72
2022-10-09T12:41:01.503Z,19.70
2022-10-09T12:42:01.514Z,19.71
2022-10-09T12:43:01.480Z,19.70
2022-10-09T12:44:01.474Z,19.65
2022-10-09T12:45:01.453Z,19.65
2022-10-09T12:46:01.500Z,19.67
2022-10-09T12:47:01.419Z,19.72
2022-10-09T12:48:01.418Z,19.78
2022-10-09T12:49:01.403Z,19.82
2022-10-09T12:50:01.391Z,19.86
2022-10-09T12:51:01.370Z,19.83
2022-10-09T12:52:01.380Z,19.80
2022-10-09T12:53:01.356Z,19.72
2022-10-09T12:54:01.351Z,19.64
2022-10-09T12:55:01.323Z,19.57
2022-10-09T12:56:01.312Z,19.50
2022-10-09T12:57:01.301Z,19.53
2022-10-09T12:58:01.292Z,19.55
2022-10-09T12:59:01.281Z,19.46
2022-10-09T13:00:01.261Z,19.35
2022-10-09T13:01:01.379Z,19.30
2022-10-09T13:02:01.385Z,19.34
2022-10-09T13:03:01.285Z,19.38
2022-10-09T13:04:01.212Z,19.39
2022-10-09T13:05:01.180Z,19.35
2022-10-09T13:06:01.190Z,19.32
2022-10-09T13:07:01.163Z,19.27
2022-10-09T13:08:01.173Z,19.30